createdAt,value
2017-04-15T00:00:34.919Z,49.90
2017-04-15T00:01:33.385Z,49.90
2017-04-15T00:02:31.564Z,50.60
2017-04-15T00:03:29.641Z,50.10
2017-04-15T00:04:28.022Z,50.10
2017-04-15T00:05:26.168Z,49.80
2017-04-15T00:06:24.756Z,50.10
2017-04-15T00:07:22.831Z,50.60
2017-04-15T00:08:20.911Z,50.60
2017-04-15T00:09:19.028Z,50.30
2017-04-15T00:10:17.265Z,50.70
2017-04-15T00:11:15.423Z,50.90
2017-04-15T00:12:13.530Z,50.70
2017-04-15T00:13:12.591Z,50.80
2017-04-15T00:14:10.692Z,51.10
2017-04-15T00:15:08.564Z,51.20
2017-04-15T00:16:06.658Z,50.70
2017-04-15T00:17:06.187Z,50.80
2017-04-15T00:18:04.291Z,50.50
2017-04-15T00:19:02.418Z,50.50
2017-04-15T00:20:00.499Z,50.60
2017-04-15T00:20:58.752Z,50.50
2017-04-15T00:21:56.827Z,50.50
2017-04-15T00:22:54.559Z,50.50
2017-04-15T00:23:53.723Z,50.30
2017-04-15T00:24:51.824Z,50.40
2017-04-15T00:25:49.908Z,50.00
2017-04-15T00:26:48.232Z,50.00
2017-04-15T00:27:46.321Z,50.00
2017-04-15T00:28:44.468Z,50.30
2017-04-15T00:29:42.579Z,50.20
2017-04-15T00:30:40.731Z,49.50
2017-04-15T00:31:38.845Z,49.10
2017-04-15T00:32:36.932Z,49.20
2017-04-15T00:33:35.003Z,49.80
2017-04-15T00:34:33.663Z,49.40
2017-04-15T00:35:31.824Z,49.40
2017-04-15T00:36:29.916Z,49.70
2017-04-15T00:37:28.051Z,49.00
2017-04-15T00:38:26.127Z,49.10
2017-04-15T00:39:25.021Z,49.20
2017-04-15T00:40:23.172Z,49.20
2017-04-15T00:41:21.272Z,49.30
2017-04-15T00:42:19.692Z,49.20
2017-04-15T00:43:17.792Z,49.30
2017-04-15T00:44:15.927Z,49.00
2017-04-15T00:45:15.117Z,49.20
2017-04-15T00:46:14.355Z,49.00
2017-04-15T00:47:13.812Z,49.70
2017-04-15T00:48:12.838Z,49.50
2017-04-15T00:49:10.963Z,49.30
2017-04-15T00:50:09.127Z,49.40
2017-04-15T00:51:07.309Z,49.60
2017-04-15T00:52:05.408Z,49.40
2017-04-15T00:53:03.503Z,49.20
2017-04-15T00:54:01.631Z,49.30
2017-04-15T00:54:59.719Z,49.50
2017-04-15T00:55:57.843Z,49.50
2017-04-15T00:56:55.925Z,49.40
2017-04-15T00:57:53.961Z,49.90
2017-04-15T00:58:52.072Z,49.60
2017-04-15T00:59:50.291Z,49.50
2017-04-15T01:00:48.487Z,49.60
2017-04-15T01:01:47.247Z,49.60
2017-04-15T01:02:45.367Z,49.90
2017-04-15T01:03:43.440Z,49.90
2017-04-15T01:04:41.566Z,49.90
2017-04-15T01:05:40.894Z,49.90
2017-04-15T01:06:38.612Z,49.90
2017-04-15T01:07:36.655Z,50.40
2017-04-15T01:08:34.740Z,50.60
2017-04-15T01:09:32.861Z,50.70
2017-04-15T01:10:31.011Z,50.30
2017-04-15T01:11:29.263Z,50.20
2017-04-15T01:12:27.322Z,50.10
2017-04-15T01:13:25.480Z,50.60
2017-04-15T01:14:23.556Z,50.20
2017-04-15T01:15:21.736Z,50.20
2017-04-15T01:16:19.447Z,50.20
2017-04-15T01:17:17.583Z,50.30
2017-04-15T01:18:15.686Z,50.40
2017-04-15T01:19:14.567Z,50.00
2017-04-15T01:20:12.726Z,50.70
2017-04-15T01:21:10.807Z,50.60
2017-04-15T01:22:08.516Z,50.50
2017-04-15T01:23:06.346Z,50.50
2017-04-15T01:24:04.439Z,50.80
2017-04-15T01:25:02.604Z,50.50
2017-04-15T01:26:01.620Z,50.70
2017-04-15T01:27:00.143Z,50.70
2017-04-15T01:27:58.239Z,50.60
2017-04-15T01:28:56.995Z,50.60
2017-04-15T01:29:55.111Z,50.50
2017-04-15T01:30:53.220Z,50.40
2017-04-15T01:31:51.291Z,50.50
2017-04-15T01:32:49.363Z,50.50
2017-04-15T01:33:47.463Z,50.50
2017-04-15T01:34:46.411Z,50.30
2017-04-15T01:35:44.539Z,50.20
2017-04-15T01:36:42.627Z,50.10
2017-04-15T01:37:40.748Z,49.90
2017-04-15T01:38:39.373Z,50.30
2017-04-15T01:39:38.211Z,50.30
2017-04-15T01:40:36.384Z,50.70
2017-04-15T01:41:34.506Z,50.70
2017-04-15T01:42:32.600Z,50.60
2017-04-15T01:43:30.744Z,50.80
2017-04-15T01:44:28.839Z,51.30
2017-04-15T01:45:28.052Z,50.50
2017-04-15T01:46:26.116Z,50.80
2017-04-15T01:47:24.751Z,50.60
2017-04-15T01:48:22.891Z,50.60
2017-04-15T01:49:20.975Z,50.10
2017-04-15T01:50:19.157Z,50.10
2017-04-15T01:51:17.287Z,50.10
2017-04-15T01:52:15.358Z,50.60
2017-04-15T01:53:13.416Z,50.90
2017-04-15T01:54:11.927Z,51.10
2017-04-15T01:55:10.299Z,51.10
2017-04-15T01:56:08.411Z,51.30
2017-04-15T01:57:06.475Z,51.80
2017-04-15T01:58:04.608Z,51.60
2017-04-15T01:59:02.722Z,51.90
2017-04-15T02:00:00.783Z,51.90
2017-04-15T02:00:59.282Z,51.50
2017-04-15T02:01:58.146Z,51.50
2017-04-15T02:02:56.200Z,51.70
2017-04-15T02:03:54.235Z,51.10
2017-04-15T02:04:52.386Z,51.30
2017-04-15T02:05:50.151Z,51.30
2017-04-15T02:06:48.455Z,51.60
2017-04-15T02:07:46.506Z,51.30
2017-04-15T02:08:44.258Z,51.30
2017-04-15T02:09:42.371Z,51.80
2017-04-15T02:10:41.332Z,51.70
2017-04-15T02:11:39.471Z,52.00
2017-04-15T02:12:38.044Z,52.10
2017-04-15T02:13:36.124Z,52.00
2017-04-15T02:14:34.235Z,52.30
2017-04-15T02:15:32.327Z,52.60
2017-04-15T02:16:30.422Z,52.50
2017-04-15T02:17:28.466Z,52.70
2017-04-15T02:18:27.535Z,52.30
2017-04-15T02:19:25.245Z,52.30
2017-04-15T02:20:23.386Z,52.30
2017-04-15T02:21:21.495Z,52.00
2017-04-15T02:22:20.941Z,52.20
2017-04-15T02:23:19.039Z,51.90
2017-04-15T02:24:17.135Z,51.70
2017-04-15T02:25:15.255Z,51.90
2017-04-15T02:26:13.344Z,52.30
2017-04-15T02:27:11.411Z,52.00
2017-04-15T02:28:09.499Z,52.30
2017-04-15T02:29:07.196Z,52.30
2017-04-15T02:30:05.524Z,52.20
2017-04-15T02:31:03.663Z,52.50
2017-04-15T02:32:01.745Z,52.10
2017-04-15T02:32:59.491Z,52.10
2017-04-15T02:33:57.598Z,52.40
2017-04-15T02:34:55.662Z,52.20
2017-04-15T02:35:53.748Z,52.80
2017-04-15T02:36:51.815Z,52.10
2017-04-15T02:37:49.527Z,52.10
2017-04-15T02:38:47.611Z,51.90
2017-04-15T02:39:46.612Z,51.90
2017-04-15T02:40:44.328Z,51.80
2017-04-15T02:41:42.363Z,51.80
2017-04-15T02:42:40.444Z,51.90
2017-04-15T02:43:38.558Z,51.60
2017-04-15T02:44:36.678Z,51.60
2017-04-15T02:45:34.440Z,51.60
2017-04-15T02:46:32.543Z,51.90
2017-04-15T02:47:30.718Z,52.20
2017-04-15T02:48:28.479Z,52.20
2017-04-15T02:49:26.523Z,51.80
2017-04-15T02:50:24.671Z,51.70
2017-04-15T02:51:22.772Z,51.50
2017-04-15T02:52:20.830Z,51.70
2017-04-15T02:53:18.543Z,51.70
2017-04-15T02:54:16.643Z,51.90
2017-04-15T02:55:14.806Z,52.00
2017-04-15T02:56:13.536Z,52.00
2017-04-15T02:57:11.623Z,51.80
2017-04-15T02:58:09.728Z,51.90
2017-04-15T02:59:07.849Z,51.90
2017-04-15T03:00:06.447Z,51.70
2017-04-15T03:01:04.664Z,51.80
2017-04-15T03:02:02.808Z,51.70
2017-04-15T03:03:00.551Z,51.70
2017-04-15T03:03:58.363Z,51.70
2017-04-15T03:04:56.446Z,51.90
2017-04-15T03:05:55.017Z,51.90
2017-04-15T03:06:53.151Z,51.90
2017-04-15T03:07:51.215Z,51.60
2017-04-15T03:08:49.303Z,51.90
2017-04-15T03:09:48.405Z,51.90
2017-04-15T03:10:47.227Z,52.00
2017-04-15T03:11:45.382Z,52.00
2017-04-15T03:12:43.498Z,52.40
2017-04-15T03:13:41.660Z,52.20
2017-04-15T03:14:39.819Z,52.10
2017-04-15T03:15:37.934Z,52.20
2017-04-15T03:16:35.707Z,52.20
2017-04-15T03:17:33.796Z,52.40
2017-04-15T03:18:31.903Z,52.60
2017-04-15T03:19:29.972Z,52.90
2017-04-15T03:20:27.872Z,52.90
2017-04-15T03:21:25.628Z,52.80
2017-04-15T03:22:23.695Z,53.10
2017-04-15T03:23:21.816Z,52.70
2017-04-15T03:24:19.932Z,52.70
2017-04-15T03:25:18.096Z,52.40
2017-04-15T03:26:16.223Z,52.40
2017-04-15T03:27:14.331Z,52.30
2017-04-15T03:28:12.464Z,52.40
2017-04-15T03:29:10.699Z,52.30
2017-04-15T03:30:09.308Z,52.30
2017-04-15T03:31:08.391Z,52.40
2017-04-15T03:32:06.457Z,52.40
2017-04-15T03:33:04.539Z,52.40
2017-04-15T03:34:02.667Z,52.70
2017-04-15T03:35:00.988Z,53.10
2017-04-15T03:35:59.723Z,52.90
2017-04-15T03:36:57.803Z,52.90
2017-04-15T03:37:55.859Z,52.90
2017-04-15T03:38:53.947Z,52.70
2017-04-15T03:39:52.052Z,52.60
2017-04-15T03:40:50.279Z,52.70
2017-04-15T03:41:48.024Z,52.70
2017-04-15T03:42:46.122Z,52.70
2017-04-15T03:43:44.241Z,52.90
2017-04-15T03:44:42.332Z,52.80
2017-04-15T03:45:40.403Z,52.80
2017-04-15T03:46:38.547Z,52.80
2017-04-15T03:47:36.635Z,53.00
2017-04-15T03:48:34.696Z,53.00
2017-04-15T03:49:32.834Z,53.00
2017-04-15T03:50:31.016Z,53.10
2017-04-15T03:51:29.083Z,53.30
2017-04-15T03:52:27.215Z,53.30
2017-04-15T03:53:25.280Z,53.20
2017-04-15T03:54:23.027Z,53.20
2017-04-15T03:55:21.191Z,53.00
2017-04-15T03:56:20.304Z,52.70
2017-04-15T03:57:18.396Z,52.80
2017-04-15T03:58:16.511Z,52.60
2017-04-15T03:59:14.342Z,52.60
2017-04-15T04:00:12.968Z,52.50
2017-04-15T04:01:11.072Z,52.40
2017-04-15T04:02:09.984Z,52.60
2017-04-15T04:03:07.683Z,52.60
2017-04-15T04:04:05.839Z,52.30
2017-04-15T04:05:03.973Z,52.20
2017-04-15T04:06:02.676Z,52.50
2017-04-15T04:07:00.929Z,52.60
2017-04-15T04:07:59.015Z,52.80
2017-04-15T04:08:57.054Z,53.40
2017-04-15T04:09:55.186Z,53.40
2017-04-15T04:10:53.338Z,53.50
2017-04-15T04:11:51.419Z,53.20
2017-04-15T04:12:49.543Z,52.90
2017-04-15T04:13:47.662Z,52.80
2017-04-15T04:14:45.767Z,52.80
2017-04-15T04:15:44.887Z,52.80
2017-04-15T04:16:47.456Z,52.80
2017-04-15T04:17:45.811Z,52.50
2017-04-15T04:18:43.949Z,52.50
2017-04-15T04:19:42.047Z,52.50
2017-04-15T04:20:40.235Z,52.60
2017-04-15T04:21:38.743Z,52.60
2017-04-15T04:22:37.788Z,52.70
2017-04-15T04:23:35.948Z,52.90
2017-04-15T04:24:34.231Z,52.90
2017-04-15T04:25:32.952Z,52.90
2017-04-15T04:26:31.085Z,53.10
2017-04-15T04:27:30.763Z,53.20
2017-04-15T04:28:28.876Z,53.50
2017-04-15T04:29:27.056Z,53.40
2017-04-15T04:30:25.511Z,53.40
2017-04-15T04:31:23.559Z,53.70
2017-04-15T04:32:21.742Z,53.00
2017-04-15T04:33:19.898Z,53.90
2017-04-15T04:34:18.058Z,54.10
2017-04-15T04:35:16.214Z,54.20
2017-04-15T04:36:14.332Z,54.10
2017-04-15T04:37:12.440Z,54.40
2017-04-15T04:38:10.572Z,54.50
2017-04-15T04:39:08.693Z,54.50
2017-04-15T04:40:06.867Z,54.20
2017-04-15T04:41:04.640Z,54.20
2017-04-15T04:42:03.075Z,54.10
2017-04-15T04:43:01.259Z,54.40
2017-04-15T04:43:59.382Z,54.70
2017-04-15T04:44:57.492Z,54.70
2017-04-15T04:45:55.734Z,54.40
2017-04-15T04:46:53.819Z,53.70
2017-04-15T04:47:51.812Z,53.70
2017-04-15T04:48:49.891Z,53.70
2017-04-15T04:49:47.938Z,54.40
2017-04-15T04:50:46.155Z,54.50
2017-04-15T04:51:44.275Z,54.30
2017-04-15T04:52:42.372Z,53.90
2017-04-15T04:53:40.467Z,54.40
2017-04-15T04:54:38.531Z,54.30
2017-04-15T04:55:36.716Z,54.60
2017-04-15T04:56:34.831Z,54.60
2017-04-15T04:57:32.895Z,54.80
2017-04-15T04:58:30.599Z,54.80
2017-04-15T04:59:28.740Z,54.90
2017-04-15T05:00:27.362Z,54.70
2017-04-15T05:01:25.480Z,54.60
2017-04-15T05:02:23.624Z,54.40
2017-04-15T05:03:21.726Z,54.30
2017-04-15T05:04:20.124Z,54.30
2017-04-15T05:05:18.256Z,54.40
2017-04-15T05:06:16.323Z,54.60
2017-04-15T05:07:14.467Z,54.90
2017-04-15T05:08:12.548Z,55.00
2017-04-15T05:09:10.618Z,54.70
2017-04-15T05:10:09.659Z,54.30
2017-04-15T05:11:07.728Z,54.30
2017-04-15T05:12:05.827Z,54.10
2017-04-15T05:13:03.915Z,54.40
2017-04-15T05:14:02.441Z,54.40
2017-04-15T05:15:01.447Z,54.20
2017-04-15T05:15:59.883Z,54.70
2017-04-15T05:16:57.948Z,55.10
2017-04-15T05:17:56.053Z,54.70
2017-04-15T05:18:54.130Z,54.40
2017-04-15T05:19:52.219Z,55.00
2017-04-15T05:20:50.361Z,54.80
2017-04-15T05:21:48.539Z,54.00
2017-04-15T05:22:46.579Z,53.80
2017-04-15T05:23:44.680Z,54.50
2017-04-15T05:24:42.780Z,54.10
2017-04-15T05:25:41.934Z,53.80
2017-04-15T05:26:39.671Z,53.80
2017-04-15T05:27:37.731Z,53.50
2017-04-15T05:28:36.391Z,53.60
2017-04-15T05:29:34.510Z,53.60
2017-04-15T05:30:32.635Z,53.40
2017-04-15T05:31:30.771Z,53.70
2017-04-15T05:32:29.426Z,53.70
2017-04-15T05:33:27.513Z,53.60
2017-04-15T05:34:25.580Z,53.40
2017-04-15T05:35:23.731Z,53.20
2017-04-15T05:36:21.800Z,52.90
2017-04-15T05:37:20.419Z,52.90
2017-04-15T05:38:18.563Z,52.60
2017-04-15T05:39:16.939Z,52.70
2017-04-15T05:40:15.164Z,53.10
2017-04-15T05:41:13.344Z,52.90
2017-04-15T05:42:11.467Z,53.90
2017-04-15T05:43:09.554Z,53.30
2017-04-15T05:44:07.623Z,52.60
2017-04-15T05:45:06.036Z,52.40
2017-04-15T05:46:04.175Z,52.10
2017-04-15T05:47:02.339Z,52.10
2017-04-15T05:48:00.863Z,52.00
2017-04-15T05:48:59.933Z,51.90
2017-04-15T05:49:58.111Z,51.70
2017-04-15T05:50:56.996Z,51.70
2017-04-15T05:51:54.727Z,51.80
2017-04-15T05:52:52.883Z,51.70
2017-04-15T05:53:50.971Z,51.80
2017-04-15T05:54:48.707Z,51.80
2017-04-15T05:55:47.476Z,51.90
2017-04-15T05:56:45.245Z,51.80
2017-04-15T05:57:43.324Z,52.00
2017-04-15T05:58:41.446Z,52.60
2017-04-15T05:59:39.536Z,52.40
2017-04-15T06:00:38.287Z,52.40
2017-04-15T06:01:36.367Z,52.40
2017-04-15T06:02:35.148Z,52.30
2017-04-15T06:03:33.309Z,52.10
2017-04-15T06:04:31.506Z,51.90
2017-04-15T06:05:30.131Z,52.30
2017-04-15T06:06:28.861Z,51.90
2017-04-15T06:07:26.660Z,51.90
2017-04-15T06:08:24.774Z,52.40
2017-04-15T06:09:22.902Z,52.10
2017-04-15T06:10:21.212Z,52.20
2017-04-15T06:11:19.359Z,52.40
2017-04-15T06:12:17.483Z,52.20
2017-04-15T06:13:15.543Z,51.70
2017-04-15T06:14:13.690Z,52.30
2017-04-15T06:15:11.908Z,51.90
2017-04-15T06:16:10.053Z,51.60
2017-04-15T06:17:08.223Z,51.20
2017-04-15T06:18:06.300Z,51.10
2017-04-15T06:19:04.059Z,51.10
2017-04-15T06:20:02.247Z,51.00
2017-04-15T06:21:00.439Z,51.10
2017-04-15T06:21:58.516Z,51.10
2017-04-15T06:22:56.248Z,51.10
2017-04-15T06:23:55.695Z,51.00
2017-04-15T06:24:53.783Z,51.80
2017-04-15T06:25:52.598Z,51.60
2017-04-15T06:26:50.691Z,51.50
2017-04-15T06:27:48.764Z,50.80
2017-04-15T06:28:46.884Z,51.10
2017-04-15T06:29:45.075Z,51.20
2017-04-15T06:30:43.653Z,51.00
2017-04-15T06:31:42.234Z,51.00
2017-04-15T06:32:40.356Z,51.30
2017-04-15T06:33:38.435Z,50.70
2017-04-15T06:34:36.488Z,51.10
2017-04-15T06:35:34.312Z,51.10
2017-04-15T06:36:32.479Z,50.70
2017-04-15T06:37:30.618Z,50.60
2017-04-15T06:38:28.711Z,50.40
2017-04-15T06:39:26.875Z,50.10
2017-04-15T06:40:25.707Z,49.90
2017-04-15T06:41:23.870Z,50.00
2017-04-15T06:42:22.028Z,49.80
2017-04-15T06:43:20.203Z,50.00
2017-04-15T06:44:18.507Z,50.20
2017-04-15T06:45:17.087Z,50.30
2017-04-15T06:46:15.205Z,50.20
2017-04-15T06:47:13.356Z,49.90
2017-04-15T06:48:11.440Z,51.40
2017-04-15T06:49:09.891Z,50.90
2017-04-15T06:50:08.191Z,50.90
2017-04-15T06:51:06.324Z,51.40
2017-04-15T06:52:05.267Z,50.50
2017-04-15T06:53:03.403Z,50.10
2017-04-15T06:54:01.527Z,49.80
2017-04-15T06:54:59.669Z,49.70
2017-04-15T06:55:57.926Z,49.10
2017-04-15T06:56:56.564Z,49.10
2017-04-15T06:57:54.730Z,49.10
2017-04-15T06:58:52.853Z,49.40
2017-04-15T06:59:50.975Z,49.50
2017-04-15T07:00:49.584Z,49.30
2017-04-15T07:01:48.260Z,49.10
2017-04-15T07:02:46.920Z,49.30
2017-04-15T07:03:45.023Z,49.60
2017-04-15T07:04:43.239Z,49.90
2017-04-15T07:05:41.415Z,49.70
2017-04-15T07:06:39.538Z,49.50
2017-04-15T07:07:37.645Z,49.70
2017-04-15T07:08:35.797Z,49.50
2017-04-15T07:09:34.003Z,49.70
2017-04-15T07:10:32.268Z,49.30
2017-04-15T07:11:30.714Z,49.50
2017-04-15T07:12:28.852Z,49.80
2017-04-15T07:13:26.985Z,50.00
2017-04-15T07:14:25.050Z,49.80
2017-04-15T07:15:23.478Z,49.80
2017-04-15T07:16:22.433Z,49.50
2017-04-15T07:17:20.571Z,49.30
2017-04-15T07:18:18.862Z,49.10
2017-04-15T07:19:17.005Z,48.50
2017-04-15T07:20:15.096Z,48.70
2017-04-15T07:21:13.219Z,48.60
2017-04-15T07:22:10.947Z,48.60
2017-04-15T07:23:09.607Z,48.90
2017-04-15T07:24:07.702Z,48.60
2017-04-15T07:25:05.907Z,48.20
2017-04-15T07:26:04.071Z,47.80
2017-04-15T07:27:04.872Z,47.80
2017-04-15T07:28:02.951Z,47.90
2017-04-15T07:29:01.106Z,48.00
2017-04-15T07:30:00.107Z,48.10
2017-04-15T07:30:58.385Z,48.50
2017-04-15T07:31:56.792Z,48.40
2017-04-15T07:32:55.028Z,48.10
2017-04-15T07:33:53.145Z,47.90
2017-04-15T07:34:51.205Z,48.60
2017-04-15T07:35:49.068Z,48.60
2017-04-15T07:36:47.260Z,49.10
2017-04-15T07:37:45.431Z,49.30
2017-04-15T07:38:43.195Z,49.30
2017-04-15T07:39:41.387Z,48.40
2017-04-15T07:40:39.879Z,48.60
2017-04-15T07:41:37.995Z,47.90
2017-04-15T07:42:36.135Z,47.70
2017-04-15T07:43:34.235Z,47.80
2017-04-15T07:44:32.302Z,47.50
2017-04-15T07:45:30.532Z,48.20
2017-04-15T07:46:29.342Z,48.30
2017-04-15T07:47:27.121Z,48.30
2017-04-15T07:48:25.228Z,48.50
2017-04-15T07:49:23.390Z,47.70
2017-04-15T07:50:22.085Z,49.00
2017-04-15T07:51:20.171Z,49.40
2017-04-15T07:52:18.386Z,47.30
2017-04-15T07:53:16.510Z,47.50
2017-04-15T07:54:14.663Z,47.50
2017-04-15T07:55:13.533Z,48.10
2017-04-15T07:56:11.645Z,47.40
2017-04-15T07:57:09.853Z,47.10
2017-04-15T07:58:08.019Z,46.60
2017-04-15T07:59:06.250Z,46.50
2017-04-15T08:00:04.699Z,46.30
2017-04-15T08:01:02.499Z,46.40
2017-04-15T08:02:00.603Z,45.70
2017-04-15T08:02:58.608Z,45.80
2017-04-15T08:03:57.824Z,46.00
2017-04-15T08:04:55.945Z,46.20
2017-04-15T08:05:54.109Z,46.70
2017-04-15T08:06:52.213Z,46.60
2017-04-15T08:07:50.356Z,46.90
2017-04-15T08:08:48.451Z,47.20
2017-04-15T08:09:46.644Z,48.20
2017-04-15T08:10:44.812Z,47.00
2017-04-15T08:11:42.984Z,46.80
2017-04-15T08:12:41.968Z,46.40
2017-04-15T08:13:40.175Z,46.80
2017-04-15T08:14:38.272Z,46.90
2017-04-15T08:15:37.204Z,46.40
2017-04-15T08:16:35.279Z,46.40
2017-04-15T08:17:33.511Z,46.20
2017-04-15T08:18:31.635Z,46.00
2017-04-15T08:19:31.058Z,45.90
2017-04-15T08:20:29.203Z,46.20
2017-04-15T08:21:27.371Z,46.60
2017-04-15T08:22:25.514Z,47.00
2017-04-15T08:23:23.631Z,46.30
2017-04-15T08:24:21.765Z,46.70
2017-04-15T08:25:19.555Z,46.70
2017-04-15T08:26:17.725Z,46.90
2017-04-15T08:27:15.903Z,47.20
2017-04-15T08:28:13.998Z,47.10
2017-04-15T08:29:12.120Z,47.20
2017-04-15T08:30:10.311Z,47.40
2017-04-15T08:31:08.451Z,46.00
2017-04-15T08:32:06.523Z,46.70
2017-04-15T08:33:04.315Z,46.70
2017-04-15T08:34:02.395Z,47.20
2017-04-15T08:35:00.533Z,46.10
2017-04-15T08:35:59.207Z,45.30
2017-04-15T08:36:57.317Z,44.10
2017-04-15T08:37:55.099Z,44.10
2017-04-15T08:38:53.317Z,44.40
2017-04-15T08:39:51.983Z,44.30
2017-04-15T08:40:50.319Z,44.10
2017-04-15T08:41:48.454Z,43.10
2017-04-15T08:42:46.589Z,42.80
2017-04-15T08:43:44.735Z,43.00
2017-04-15T08:44:42.900Z,42.90
2017-04-15T08:45:41.064Z,43.80
2017-04-15T08:46:38.854Z,43.80
2017-04-15T08:47:37.030Z,43.90
2017-04-15T08:48:35.194Z,42.80
2017-04-15T08:49:33.643Z,43.30
2017-04-15T08:50:32.154Z,44.50
2017-04-15T08:51:30.342Z,43.90
2017-04-15T08:52:28.481Z,44.70
2017-04-15T08:53:26.614Z,44.00
2017-04-15T08:54:24.771Z,43.70
2017-04-15T08:55:23.246Z,43.70
2017-04-15T08:56:21.791Z,42.30
2017-04-15T08:57:20.294Z,43.30
2017-04-15T08:58:18.432Z,44.10
2017-04-15T08:59:16.866Z,43.60
2017-04-15T09:00:15.475Z,42.10
2017-04-15T09:01:13.576Z,42.00
2017-04-15T09:02:12.595Z,42.40
2017-04-15T09:03:10.668Z,42.40
2017-04-15T09:04:09.738Z,41.60
2017-04-15T09:05:08.990Z,41.50
2017-04-15T09:06:07.436Z,42.50
2017-04-15T09:07:05.597Z,42.30
2017-04-15T09:08:03.707Z,42.30
2017-04-15T09:09:01.895Z,41.90
2017-04-15T09:10:00.047Z,41.40
2017-04-15T09:10:58.326Z,41.70
2017-04-15T09:11:56.427Z,41.90
2017-04-15T09:12:54.903Z,41.90
2017-04-15T09:13:53.496Z,42.10
2017-04-15T09:14:51.588Z,42.10
2017-04-15T09:15:50.514Z,42.30
2017-04-15T09:16:48.630Z,42.20
2017-04-15T09:17:47.257Z,41.70
2017-04-15T09:18:45.334Z,42.10
2017-04-15T09:19:43.446Z,41.70
2017-04-15T09:20:42.066Z,41.80
2017-04-15T09:21:40.208Z,41.80
2017-04-15T09:22:38.319Z,42.40
2017-04-15T09:23:36.391Z,42.10
2017-04-15T09:24:34.533Z,41.80
2017-04-15T09:25:32.761Z,42.40
2017-04-15T09:26:30.875Z,42.80
2017-04-15T09:27:29.039Z,41.90
2017-04-15T09:28:27.200Z,41.90
2017-04-15T09:29:25.307Z,41.30
2017-04-15T09:30:23.175Z,41.30
2017-04-15T09:31:21.292Z,42.30
2017-04-15T09:32:19.453Z,42.30
2017-04-15T09:33:17.224Z,42.30
2017-04-15T09:34:15.369Z,41.40
2017-04-15T09:35:13.667Z,40.90
2017-04-15T09:36:11.784Z,41.50
2017-04-15T09:37:10.005Z,41.70
2017-04-15T09:38:08.142Z,41.80
2017-04-15T09:39:07.676Z,42.30
2017-04-15T09:40:05.573Z,42.30
2017-04-15T09:41:03.740Z,42.70
2017-04-15T09:42:01.889Z,41.40
2017-04-15T09:43:00.044Z,41.60
2017-04-15T09:43:58.205Z,41.80
2017-04-15T09:44:56.296Z,41.70
2017-04-15T09:45:55.406Z,42.30
2017-04-15T09:46:54.775Z,42.50
2017-04-15T09:47:52.866Z,42.60
2017-04-15T09:48:50.978Z,42.00
2017-04-15T09:49:49.122Z,41.40
2017-04-15T09:50:47.285Z,41.30
2017-04-15T09:51:45.393Z,41.40
2017-04-15T09:52:43.536Z,41.30
2017-04-15T09:53:41.236Z,41.30
2017-04-15T09:54:40.309Z,41.20
2017-04-15T09:55:38.567Z,42.00
2017-04-15T09:56:36.651Z,42.30
2017-04-15T09:57:35.030Z,41.10
2017-04-15T09:58:33.268Z,40.90
2017-04-15T09:59:32.878Z,40.30
2017-04-15T10:00:31.615Z,40.60
2017-04-15T10:01:29.772Z,40.60
2017-04-15T10:02:27.876Z,41.30
2017-04-15T10:03:26.000Z,40.70
2017-04-15T10:04:24.296Z,40.00
2017-04-15T10:05:22.778Z,40.30
2017-04-15T10:06:20.929Z,39.50
2017-04-15T10:07:20.684Z,39.80
2017-04-15T10:08:19.513Z,40.50
2017-04-15T10:09:17.674Z,41.00
2017-04-15T10:10:15.953Z,40.40
2017-04-15T10:11:14.025Z,40.50
2017-04-15T10:12:11.792Z,40.50
2017-04-15T10:13:10.012Z,40.40
2017-04-15T10:14:08.142Z,39.90
2017-04-15T10:15:06.804Z,39.30
2017-04-15T10:16:04.505Z,39.30
2017-04-15T10:17:02.603Z,39.70
2017-04-15T10:18:00.823Z,37.90
2017-04-15T10:18:58.997Z,37.80
2017-04-15T10:19:57.133Z,38.40
2017-04-15T10:20:55.793Z,39.50
2017-04-15T10:21:54.027Z,39.00
2017-04-15T10:22:52.335Z,38.90
2017-04-15T10:23:50.512Z,39.00
2017-04-15T10:24:48.594Z,39.10
2017-04-15T10:25:47.119Z,39.30
2017-04-15T10:26:45.515Z,38.80
2017-04-15T10:27:44.652Z,39.20
2017-04-15T10:28:42.879Z,39.20
2017-04-15T10:29:41.507Z,38.80
2017-04-15T10:30:40.643Z,38.60
2017-04-15T10:31:38.803Z,38.80
2017-04-15T10:32:36.971Z,36.40
2017-04-15T10:33:35.067Z,36.80
2017-04-15T10:34:33.413Z,37.10
2017-04-15T10:35:32.221Z,37.50
2017-04-15T10:36:30.401Z,36.80
2017-04-15T10:37:28.510Z,37.20
2017-04-15T10:38:27.075Z,36.90
2017-04-15T10:39:25.183Z,37.50
2017-04-15T10:40:23.379Z,36.80
2017-04-15T10:41:21.484Z,36.80
2017-04-15T10:42:19.279Z,36.80
2017-04-15T10:43:17.414Z,38.10
2017-04-15T10:44:15.588Z,37.50
2017-04-15T10:45:14.166Z,36.30
2017-04-15T10:46:12.902Z,36.30
2017-04-15T10:47:11.087Z,36.60
2017-04-15T10:48:10.100Z,36.30
2017-04-15T10:49:08.271Z,35.10
2017-04-15T10:50:06.407Z,34.90
2017-04-15T10:51:04.631Z,35.70
2017-04-15T10:52:02.671Z,35.80
2017-04-15T10:53:01.071Z,35.30
2017-04-15T10:53:59.211Z,35.00
2017-04-15T10:54:57.395Z,34.50
2017-04-15T10:55:55.953Z,35.10
2017-04-15T10:56:54.039Z,35.40
2017-04-15T10:57:52.139Z,36.10
2017-04-15T10:58:51.319Z,35.60
2017-04-15T10:59:49.531Z,35.20
2017-04-15T11:00:47.775Z,35.90
2017-04-15T11:01:45.612Z,35.90
2017-04-15T11:02:43.816Z,36.10
2017-04-15T11:03:42.920Z,36.30
2017-04-15T11:04:41.023Z,36.10
2017-04-15T11:05:39.493Z,37.20
2017-04-15T11:06:37.565Z,35.70
2017-04-15T11:07:35.637Z,36.20
2017-04-15T11:08:33.455Z,36.30
2017-04-15T11:09:32.039Z,36.70
2017-04-15T11:10:30.195Z,35.70
2017-04-15T11:11:27.962Z,35.70
2017-04-15T11:12:26.096Z,37.30
2017-04-15T11:13:24.175Z,36.80
2017-04-15T11:14:24.247Z,37.10
2017-04-15T11:15:22.779Z,36.80
2017-04-15T11:16:20.873Z,37.40
2017-04-15T11:17:18.944Z,37.80
2017-04-15T11:18:17.024Z,38.20
2017-04-15T11:19:15.135Z,37.80
2017-04-15T11:20:13.300Z,38.20
2017-04-15T11:21:11.476Z,38.30
2017-04-15T11:22:10.534Z,38.80
2017-04-15T11:23:09.203Z,38.90
2017-04-15T11:24:07.363Z,39.30
2017-04-15T11:25:05.532Z,39.90
2017-04-15T11:26:03.254Z,39.90
2017-04-15T11:27:02.572Z,39.60
2017-04-15T11:28:00.668Z,39.50
2017-04-15T11:28:58.745Z,40.20
2017-04-15T11:29:56.843Z,40.20
2017-04-15T11:30:55.010Z,40.20
2017-04-15T11:31:53.114Z,40.40
2017-04-15T11:32:51.519Z,40.40
2017-04-15T11:33:49.673Z,40.30
2017-04-15T11:34:47.732Z,41.00
2017-04-15T11:35:46.260Z,40.70
2017-04-15T11:36:44.403Z,41.30
2017-04-15T11:37:42.448Z,41.20
2017-04-15T11:38:40.603Z,41.80
2017-04-15T11:39:38.748Z,41.60
2017-04-15T11:40:36.590Z,41.60
2017-04-15T11:41:34.692Z,41.90
2017-04-15T11:42:32.780Z,42.20
2017-04-15T11:43:30.896Z,42.40
2017-04-15T11:44:30.071Z,42.10
2017-04-15T11:45:28.276Z,42.90
2017-04-15T11:46:26.443Z,42.50
2017-04-15T11:47:24.590Z,42.80
2017-04-15T11:48:23.697Z,42.00
2017-04-15T11:49:22.861Z,42.00
2017-04-15T11:50:21.020Z,41.50
2017-04-15T11:51:19.091Z,41.20
2017-04-15T11:52:18.109Z,41.00
2017-04-15T11:53:16.271Z,41.20
2017-04-15T11:54:14.116Z,41.20
2017-04-15T11:55:13.144Z,41.50
2017-04-15T11:56:11.255Z,41.00
2017-04-15T11:57:10.177Z,40.60
2017-04-15T11:58:08.275Z,40.30
2017-04-15T11:59:06.679Z,40.20
2017-04-15T12:00:06.739Z,40.70
2017-04-15T12:01:05.562Z,40.40
2017-04-15T12:02:04.667Z,40.30
2017-04-15T12:03:03.580Z,40.30
2017-04-15T12:04:01.747Z,40.90
2017-04-15T12:04:59.941Z,40.30
2017-04-15T12:05:58.524Z,39.00
2017-04-15T12:06:56.715Z,39.40
2017-04-15T12:07:54.979Z,39.60
2017-04-15T12:08:53.113Z,39.40
2017-04-15T12:09:50.904Z,39.50
2017-04-15T12:10:48.729Z,39.70
2017-04-15T12:11:46.856Z,40.40
2017-04-15T12:12:45.291Z,40.40
2017-04-15T12:13:44.545Z,40.20
2017-04-15T12:14:43.352Z,40.50
2017-04-15T12:15:42.051Z,40.70
2017-04-15T12:16:41.154Z,41.00
2017-04-15T12:17:40.095Z,41.00
2017-04-15T12:18:38.249Z,41.00
2017-04-15T12:19:36.804Z,41.90
2017-04-15T12:20:34.959Z,41.90
2017-04-15T12:21:34.189Z,41.60
2017-04-15T12:22:32.697Z,42.30
2017-04-15T12:23:31.056Z,41.60
2017-04-15T12:24:29.205Z,41.30
2017-04-15T12:25:27.381Z,41.30
2017-04-15T12:26:25.471Z,42.00
2017-04-15T12:27:23.572Z,41.40
2017-04-15T12:28:21.716Z,41.90
2017-04-15T12:29:19.932Z,41.80
2017-04-15T12:30:18.567Z,42.40